createdAt,value
2023-02-15T00:01:43.388Z,46.77
2023-02-15T00:04:13.323Z,47.57
2023-02-15T00:06:40.465Z,52.83
2023-02-15T00:09:07.565Z,50.27
2023-02-15T00:11:44.664Z,43.83
2023-02-15T00:14:16.920Z,74.73
2023-02-15T00:16:45.029Z,55.57
2023-02-15T00:19:13.068Z,39.90
2023-02-15T00:21:41.318Z,50.23
2023-02-15T00:24:10.040Z,46.27
2023-02-15T00:26:38.676Z,37.40
2023-02-15T00:29:05.741Z,95.63
2023-02-15T00:31:33.953Z,128.57
2023-02-15T00:34:11.864Z,43.83
2023-02-15T00:36:39.124Z,45.97
2023-02-15T00:39:06.637Z,33.03
2023-02-15T00:41:33.986Z,46.73
2023-02-15T00:44:00.983Z,54.77
2023-02-15T00:46:27.767Z,29.03
2023-02-15T00:48:54.524Z,69.10
2023-02-15T00:51:23.961Z,28.20
2023-02-15T00:53:50.981Z,32.17
2023-02-15T00:56:17.777Z,47.53
2023-02-15T00:58:44.726Z,41.93
2023-02-15T01:01:18.304Z,94.77
2023-02-15T01:03:46.965Z,58.43
2023-02-15T01:06:14.944Z,77.63
2023-02-15T01:08:42.289Z,48.17
2023-02-15T01:11:12.130Z,46.70
2023-02-15T01:13:39.250Z,38.70
2023-02-15T01:16:06.501Z,43.50
2023-02-15T01:18:34.243Z,43.70
2023-02-15T01:21:01.005Z,43.97
2023-02-15T01:23:27.678Z,31.17
2023-02-15T01:25:54.406Z,43.53
2023-02-15T01:28:21.167Z,27.93
2023-02-15T01:30:48.016Z,30.77
2023-02-15T01:33:18.785Z,30.50
2023-02-15T01:35:47.148Z,28.70
2023-02-15T01:38:14.950Z,36.63
2023-02-15T01:40:41.763Z,35.60
2023-02-15T01:43:12.952Z,32.03
2023-02-15T01:45:40.415Z,40.50
2023-02-15T01:48:13.162Z,29.00
2023-02-15T01:50:43.999Z,41.47
2023-02-15T01:53:43.740Z,27.80
2023-02-15T01:56:16.028Z,35.87
2023-02-15T01:58:44.100Z,42.90
2023-02-15T02:01:10.964Z,28.87
2023-02-15T02:03:43.773Z,34.77
2023-02-15T02:06:11.222Z,35.97
2023-02-15T02:08:38.692Z,58.80
2023-02-15T02:11:11.810Z,66.30
2023-02-15T02:13:39.693Z,69.63
2023-02-15T02:16:09.397Z,52.40
2023-02-15T02:18:48.725Z,49.13
2023-02-15T02:21:33.757Z,32.23
2023-02-15T02:24:24.653Z,39.43
2023-02-15T02:27:23.763Z,30.00
2023-02-15T02:30:09.958Z,39.37
2023-02-15T02:32:54.649Z,55.47
2023-02-15T02:35:32.722Z,49.60
2023-02-15T02:38:43.470Z,38.13
2023-02-15T02:41:45.863Z,37.53
2023-02-15T02:44:25.894Z,43.97
2023-02-15T02:47:01.884Z,45.03
2023-02-15T02:49:39.728Z,45.03
2023-02-15T02:52:28.525Z,58.20
2023-02-15T02:54:57.093Z,78.20
2023-02-15T02:57:27.980Z,37.40
2023-02-15T02:59:57.347Z,34.50
2023-02-15T03:02:32.954Z,68.50
2023-02-15T03:05:07.265Z,70.07
2023-02-15T03:07:36.837Z,41.03
2023-02-15T03:10:06.268Z,44.60
2023-02-15T03:12:38.622Z,35.83
2023-02-15T03:15:08.593Z,40.20
2023-02-15T03:17:39.148Z,41.93
2023-02-15T03:20:15.034Z,41.90
2023-02-15T03:22:56.141Z,37.20
2023-02-15T03:25:44.518Z,52.40
2023-02-15T03:28:17.855Z,53.43
2023-02-15T03:30:49.917Z,59.60
2023-02-15T03:33:17.393Z,43.83
2023-02-15T03:35:53.989Z,64.23
2023-02-15T03:38:30.617Z,50.60
2023-02-15T03:41:12.668Z,51.07
2023-02-15T03:43:54.381Z,48.90
2023-02-15T03:46:46.493Z,64.00
2023-02-15T03:49:28.773Z,42.87
2023-02-15T03:51:58.528Z,40.10
2023-02-15T03:54:43.612Z,51.40
2023-02-15T03:57:40.967Z,39.00
2023-02-15T04:00:41.154Z,40.97
2023-02-15T04:03:32.164Z,32.03
2023-02-15T04:05:59.167Z,40.77
2023-02-15T04:08:45.939Z,44.80
2023-02-15T04:11:12.616Z,36.87
2023-02-15T04:13:40.116Z,35.27
2023-02-15T04:16:08.165Z,36.13
2023-02-15T04:18:57.971Z,41.13
2023-02-15T04:21:44.914Z,36.83
2023-02-15T04:24:30.761Z,37.63
2023-02-15T04:26:57.922Z,38.57
2023-02-15T04:29:26.270Z,35.43
2023-02-15T04:31:54.428Z,47.10
2023-02-15T04:34:21.737Z,39.63
2023-02-15T04:36:48.636Z,70.00
2023-02-15T04:39:16.619Z,47.10
2023-02-15T04:41:43.720Z,49.53
2023-02-15T04:44:10.759Z,43.33
2023-02-15T04:46:38.102Z,38.80
2023-02-15T04:49:05.008Z,37.30
2023-02-15T04:51:31.787Z,39.60
2023-02-15T04:53:58.532Z,42.10
2023-02-15T04:56:25.249Z,55.27
2023-02-15T04:58:51.988Z,41.80
2023-02-15T05:01:20.061Z,64.20
2023-02-15T05:03:49.298Z,49.50
2023-02-15T05:06:16.464Z,62.03
2023-02-15T05:08:43.272Z,46.90
2023-02-15T05:11:10.209Z,55.80
2023-02-15T05:13:36.946Z,74.20
2023-02-15T05:16:04.286Z,47.10
2023-02-15T05:18:31.155Z,55.30
2023-02-15T05:20:57.959Z,59.50
2023-02-15T05:23:24.716Z,48.47
2023-02-15T05:26:10.931Z,47.23
2023-02-15T05:28:38.421Z,67.03
2023-02-15T05:31:17.865Z,62.63
2023-02-15T05:33:45.145Z,48.00
2023-02-15T05:36:12.458Z,55.73
2023-02-15T05:38:39.437Z,45.97
2023-02-15T05:41:07.576Z,46.30
2023-02-15T05:43:34.860Z,43.60
2023-02-15T05:46:03.200Z,42.47
2023-02-15T05:48:30.329Z,49.40
2023-02-15T05:51:12.289Z,66.20
2023-02-15T05:53:39.826Z,44.33
2023-02-15T05:56:09.074Z,50.13
2023-02-15T05:58:41.234Z,63.57
2023-02-15T06:01:12.925Z,68.80
2023-02-15T06:03:40.040Z,44.20
2023-02-15T06:06:07.796Z,54.73
2023-02-15T06:08:35.909Z,58.93
2023-02-15T06:11:02.994Z,48.53
2023-02-15T06:13:30.010Z,46.97
2023-02-15T06:15:56.780Z,43.73
2023-02-15T06:18:23.671Z,48.67
2023-02-15T06:20:50.553Z,46.20
2023-02-15T06:23:17.476Z,53.03
2023-02-15T06:25:46.599Z,57.87
2023-02-15T06:28:14.000Z,45.13
2023-02-15T06:30:40.851Z,65.53
2023-02-15T06:33:07.554Z,54.63
2023-02-15T06:35:34.328Z,51.40
2023-02-15T06:38:01.003Z,44.07
2023-02-15T06:40:27.665Z,48.77
2023-02-15T06:42:54.400Z,47.27
2023-02-15T06:45:21.058Z,58.07
2023-02-15T06:47:47.781Z,44.17
2023-02-15T06:50:14.510Z,67.57
2023-02-15T06:52:41.126Z,65.53
2023-02-15T06:55:08.140Z,49.47
2023-02-15T06:57:34.778Z,71.60
2023-02-15T07:00:02.166Z,68.30
2023-02-15T07:02:29.358Z,47.67
2023-02-15T07:04:56.091Z,52.50
2023-02-15T07:07:23.197Z,58.57
2023-02-15T07:09:49.870Z,51.00
2023-02-15T07:12:35.127Z,51.00
2023-02-15T07:15:01.787Z,53.07
2023-02-15T07:17:37.109Z,51.90
2023-02-15T07:20:09.567Z,71.97
2023-02-15T07:22:37.236Z,63.70
2023-02-15T07:25:05.208Z,72.20
2023-02-15T07:27:32.860Z,64.63
2023-02-15T07:30:00.521Z,68.43
2023-02-15T07:32:32.053Z,79.87
2023-02-15T07:35:00.202Z,62.97
2023-02-15T07:37:27.857Z,69.37
2023-02-15T07:39:54.619Z,60.40
2023-02-15T07:42:22.120Z,61.97
2023-02-15T07:44:48.977Z,62.10
2023-02-15T07:47:15.744Z,54.80
2023-02-15T07:49:42.405Z,68.63
2023-02-15T07:52:09.135Z,61.33
2023-02-15T07:54:35.811Z,59.43
2023-02-15T07:57:02.998Z,54.53
2023-02-15T07:59:29.752Z,53.73
2023-02-15T08:01:57.516Z,45.77
2023-02-15T08:04:24.528Z,44.27
2023-02-15T08:06:54.444Z,48.23
2023-02-15T08:09:21.419Z,36.53
2023-02-15T08:11:48.533Z,42.07
2023-02-15T08:14:19.183Z,39.80
2023-02-15T08:16:53.793Z,40.87
2023-02-15T08:19:24.944Z,37.23
2023-02-15T08:21:54.496Z,40.70
2023-02-15T08:24:23.345Z,36.93
2023-02-15T08:26:51.040Z,36.47
2023-02-15T08:29:20.583Z,34.27
2023-02-15T08:31:48.122Z,38.73
2023-02-15T08:34:19.706Z,37.30
2023-02-15T08:36:46.757Z,36.13
2023-02-15T08:39:15.219Z,35.63
2023-02-15T08:41:47.241Z,45.73
2023-02-15T08:44:16.324Z,43.10
2023-02-15T08:46:44.981Z,34.03
2023-02-15T08:49:15.921Z,31.80
2023-02-15T08:51:43.068Z,31.83
2023-02-15T08:54:13.879Z,32.07
2023-02-15T08:56:42.918Z,32.43
2023-02-15T08:59:15.011Z,28.30
2023-02-15T09:01:41.754Z,29.23
2023-02-15T09:04:13.666Z,28.90
2023-02-15T09:06:41.679Z,33.43
2023-02-15T09:09:09.315Z,31.77
2023-02-15T09:11:38.944Z,30.03
2023-02-15T09:14:10.039Z,31.63
2023-02-15T09:16:39.015Z,29.33
2023-02-15T09:19:06.894Z,30.57
2023-02-15T09:21:36.596Z,32.10
2023-02-15T09:24:06.532Z,32.90
2023-02-15T09:26:36.180Z,29.53
2023-02-15T09:29:04.587Z,36.37
2023-02-15T09:31:34.774Z,33.37
2023-02-15T09:34:05.343Z,36.43
2023-02-15T09:36:34.866Z,36.73
2023-02-15T09:39:10.712Z,40.10
2023-02-15T09:41:52.558Z,35.57
2023-02-15T09:44:25.179Z,40.00
2023-02-15T09:47:22.926Z,33.17
2023-02-15T09:50:10.844Z,34.30
2023-02-15T09:53:20.045Z,31.40
2023-02-15T09:55:54.467Z,32.53
2023-02-15T09:58:26.863Z,30.83
2023-02-15T10:01:07.348Z,33.00
2023-02-15T10:03:52.611Z,32.80
2023-02-15T10:06:46.003Z,30.73
2023-02-15T10:09:18.574Z,30.60
2023-02-15T10:12:00.428Z,30.47
2023-02-15T10:14:58.997Z,30.67
2023-02-15T10:17:46.423Z,31.13
2023-02-15T10:20:29.955Z,27.47
2023-02-15T10:23:19.152Z,28.40
2023-02-15T10:25:45.815Z,27.73
2023-02-15T10:28:24.188Z,28.30
2023-02-15T10:30:54.505Z,26.67
2023-02-15T10:33:43.810Z,28.53
2023-02-15T10:36:32.292Z,30.20
2023-02-15T10:39:21.929Z,29.00
2023-02-15T10:41:54.444Z,29.90
2023-02-15T10:44:39.754Z,30.13
2023-02-15T10:47:50.822Z,29.20
2023-02-15T10:50:33.454Z,31.70
2023-02-15T10:53:03.370Z,31.77
2023-02-15T10:56:06.735Z,29.50
2023-02-15T10:58:36.160Z,30.70
2023-02-15T11:01:23.662Z,29.37
2023-02-15T11:04:12.125Z,28.93
2023-02-15T11:06:43.814Z,29.93
2023-02-15T11:09:14.181Z,31.80
2023-02-15T11:11:45.781Z,33.60
2023-02-15T11:14:12.502Z,30.67
2023-02-15T11:16:45.276Z,31.53
2023-02-15T11:19:27.315Z,29.80
2023-02-15T11:22:00.274Z,27.57
2023-02-15T11:24:30.884Z,32.00
2023-02-15T11:27:06.374Z,24.53
2023-02-15T11:29:38.354Z,27.17
2023-02-15T11:32:26.871Z,31.10
2023-02-15T11:35:11.202Z,28.40
2023-02-15T11:37:59.771Z,28.97
2023-02-15T11:40:33.937Z,29.57
2023-02-15T11:43:07.183Z,29.37
2023-02-15T11:45:35.692Z,39.37
2023-02-15T11:48:11.565Z,29.70
2023-02-15T11:50:38.554Z,30.30
2023-02-15T11:53:28.550Z,27.93
2023-02-15T11:55:56.345Z,30.00
2023-02-15T11:58:25.836Z,27.67
2023-02-15T12:01:26.782Z,27.43
2023-02-15T12:03:56.324Z,33.67
2023-02-15T12:06:29.632Z,30.10
2023-02-15T12:09:37.761Z,28.13
2023-02-15T12:12:25.929Z,29.60
2023-02-15T12:15:01.026Z,29.47
2023-02-15T12:17:30.616Z,31.17
2023-02-15T12:20:02.337Z,28.70
2023-02-15T12:22:32.815Z,26.70
2023-02-15T12:25:02.995Z,27.27
2023-02-15T12:27:35.480Z,29.57
2023-02-15T12:30:28.454Z,26.80
2023-02-15T12:33:02.644Z,32.03
2023-02-15T12:35:32.487Z,26.87
2023-02-15T12:38:12.310Z,28.53
2023-02-15T12:40:41.139Z,28.97
2023-02-15T12:43:27.945Z,26.60
2023-02-15T12:46:05.599Z,27.40
2023-02-15T12:48:32.276Z,26.87
2023-02-15T12:51:09.361Z,27.67
2023-02-15T12:53:37.401Z,28.20
2023-02-15T12:56:09.966Z,28.17
2023-02-15T12:58:41.177Z,27.00
2023-02-15T13:01:22.221Z,25.23
2023-02-15T13:03:56.014Z,40.33
2023-02-15T13:06:23.286Z,27.03
2023-02-15T13:08:52.642Z,26.47
2023-02-15T13:11:38.808Z,26.33
2023-02-15T13:14:22.824Z,26.87
2023-02-15T13:16:53.259Z,26.17
2023-02-15T13:19:43.053Z,25.00
2023-02-15T13:22:15.952Z,29.63
2023-02-15T13:24:49.317Z,24.90
2023-02-15T13:27:21.189Z,28.00
2023-02-15T13:29:52.178Z,25.83
2023-02-15T13:32:29.856Z,27.70
2023-02-15T13:34:59.716Z,27.77
2023-02-15T13:37:41.899Z,25.17
2023-02-15T13:40:16.404Z,25.23
2023-02-15T13:42:58.145Z,26.10
2023-02-15T13:45:34.801Z,25.43
2023-02-15T13:48:13.726Z,24.33
2023-02-15T13:51:22.849Z,29.50
2023-02-15T13:54:18.604Z,27.20
2023-02-15T13:56:56.797Z,27.23
2023-02-15T13:59:41.429Z,26.40
2023-02-15T14:02:28.419Z,26.53
2023-02-15T14:05:14.740Z,33.10
2023-02-15T14:07:51.051Z,28.30
2023-02-15T14:10:30.260Z,27.97
2023-02-15T14:13:21.842Z,26.57
2023-02-15T14:15:57.625Z,30.73
2023-02-15T14:18:48.542Z,27.93
2023-02-15T14:21:42.327Z,29.57
2023-02-15T14:25:03.468Z,28.03
2023-02-15T14:27:44.296Z,29.80
2023-02-15T14:30:21.046Z,30.40
2023-02-15T14:32:55.861Z,29.53
2023-02-15T14:35:27.028Z,29.77
2023-02-15T14:38:08.161Z,34.07
2023-02-15T14:41:05.028Z,31.20
2023-02-15T14:43:50.088Z,32.10
2023-02-15T14:46:25.461Z,29.23
2023-02-15T14:48:56.459Z,32.63
2023-02-15T14:51:41.355Z,31.57
2023-02-15T14:54:18.078Z,31.43
2023-02-15T14:57:00.972Z,30.83
2023-02-15T14:59:46.281Z,28.80
2023-02-15T15:02:27.069Z,29.23
2023-02-15T15:05:09.222Z,30.87
2023-02-15T15:07:56.264Z,30.13
2023-02-15T15:10:23.000Z,29.10
2023-02-15T15:12:54.149Z,31.03
2023-02-15T15:15:35.991Z,30.30
2023-02-15T15:18:07.094Z,32.77
2023-02-15T15:20:49.544Z,28.97
2023-02-15T15:23:17.778Z,31.60
2023-02-15T15:25:49.190Z,35.27
2023-02-15T15:28:34.627Z,33.97
2023-02-15T15:31:10.728Z,31.60
2023-02-15T15:34:15.366Z,30.67
2023-02-15T15:37:29.602Z,29.07
2023-02-15T15:39:56.354Z,31.33
2023-02-15T15:42:45.496Z,31.33
2023-02-15T15:45:42.505Z,32.57
2023-02-15T15:48:33.464Z,31.43
2023-02-15T15:51:21.244Z,33.27
2023-02-15T15:53:53.989Z,30.57
2023-02-15T15:56:26.006Z,29.73
2023-02-15T15:59:03.104Z,28.23
2023-02-15T16:01:44.819Z,30.00
2023-02-15T16:04:14.215Z,33.97
2023-02-15T16:06:41.620Z,32.50
2023-02-15T16:09:19.909Z,30.43
2023-02-15T16:11:51.708Z,30.33
2023-02-15T16:14:30.701Z,31.20
2023-02-15T16:17:05.162Z,33.10
2023-02-15T16:19:38.597Z,31.27
2023-02-15T16:22:12.989Z,32.70
2023-02-15T16:24:42.743Z,34.73
2023-02-15T16:27:12.140Z,38.13
2023-02-15T16:29:38.946Z,35.87
2023-02-15T16:32:16.466Z,34.23
2023-02-15T16:35:03.905Z,33.57
2023-02-15T16:37:35.375Z,39.00
2023-02-15T16:40:02.505Z,36.30
2023-02-15T16:42:29.614Z,40.63
2023-02-15T16:44:58.195Z,35.17
2023-02-15T16:47:32.516Z,34.73
2023-02-15T16:50:02.381Z,37.80
2023-02-15T16:52:30.179Z,43.97
2023-02-15T16:55:00.240Z,38.30
2023-02-15T16:57:37.648Z,39.93
2023-02-15T17:00:23.916Z,42.57
2023-02-15T17:02:58.846Z,39.33
2023-02-15T17:05:32.474Z,38.53
2023-02-15T17:08:13.377Z,43.67
2023-02-15T17:10:46.461Z,43.27
2023-02-15T17:13:17.551Z,41.37
2023-02-15T17:15:59.385Z,48.80
2023-02-15T17:18:29.597Z,44.27
2023-02-15T17:21:01.637Z,48.97
2023-02-15T17:23:37.417Z,42.77
2023-02-15T17:26:17.080Z,47.67
2023-02-15T17:28:50.045Z,48.63
2023-02-15T17:31:21.945Z,48.67
2023-02-15T17:33:49.853Z,44.87
2023-02-15T17:36:25.529Z,48.17
2023-02-15T17:38:58.519Z,49.40
2023-02-15T17:41:25.904Z,52.67
2023-02-15T17:43:52.809Z,47.93
2023-02-15T17:46:25.685Z,49.37
2023-02-15T17:48:54.876Z,51.50
2023-02-15T17:51:22.441Z,50.30
2023-02-15T17:54:08.033Z,44.83
2023-02-15T17:56:35.564Z,52.13
2023-02-15T17:59:02.254Z,57.00
2023-02-15T18:01:47.383Z,109.53
2023-02-15T18:04:33.762Z,76.63
2023-02-15T18:07:19.327Z,55.97
2023-02-15T18:10:04.873Z,51.30
2023-02-15T18:12:34.769Z,61.37
2023-02-15T18:15:01.746Z,58.00
2023-02-15T18:17:32.807Z,49.20
2023-02-15T18:20:01.515Z,62.40
2023-02-15T18:22:29.675Z,75.43
2023-02-15T18:24:56.339Z,58.47
2023-02-15T18:27:23.151Z,64.97
2023-02-15T18:29:49.956Z,139.90
2023-02-15T18:32:27.269Z,81.00
2023-02-15T18:34:57.644Z,106.03
2023-02-15T18:37:29.371Z,65.13
2023-02-15T18:39:56.292Z,73.00
2023-02-15T18:42:24.343Z,80.70
2023-02-15T18:44:58.502Z,70.53
2023-02-15T18:47:25.531Z,68.13
2023-02-15T18:49:52.451Z,93.93
2023-02-15T18:52:22.491Z,53.27
2023-02-15T18:54:54.073Z,46.63
2023-02-15T18:57:20.809Z,61.10
2023-02-15T18:59:47.547Z,51.73
2023-02-15T19:02:17.263Z,79.83
2023-02-15T19:04:45.213Z,80.30
2023-02-15T19:07:17.558Z,66.27
2023-02-15T19:09:47.767Z,45.77
2023-02-15T19:12:14.596Z,74.27
2023-02-15T19:14:41.305Z,47.43
2023-02-15T19:17:17.810Z,43.07
2023-02-15T19:19:45.633Z,68.57
2023-02-15T19:22:16.626Z,58.93
2023-02-15T19:24:45.271Z,56.47
2023-02-15T19:27:26.287Z,42.33
2023-02-15T19:29:54.070Z,142.97
2023-02-15T19:32:21.285Z,76.80
2023-02-15T19:34:48.037Z,50.73
2023-02-15T19:37:31.456Z,55.33
2023-02-15T19:39:58.173Z,91.73
2023-02-15T19:42:25.039Z,41.90
2023-02-15T19:44:52.033Z,42.40
2023-02-15T19:47:19.544Z,136.87
2023-02-15T19:49:46.377Z,64.03
2023-02-15T19:52:18.559Z,39.80
2023-02-15T19:54:46.334Z,44.20
2023-02-15T19:57:13.860Z,83.57
2023-02-15T19:59:41.787Z,67.67
2023-02-15T20:02:18.030Z,74.20
2023-02-15T20:04:44.777Z,74.07
2023-02-15T20:07:24.568Z,56.47
2023-02-15T20:09:51.593Z,104.30
2023-02-15T20:12:24.187Z,106.57
2023-02-15T20:14:51.661Z,77.20
2023-02-15T20:17:18.953Z,82.43
2023-02-15T20:19:46.143Z,101.47
2023-02-15T20:22:33.713Z,144.47
2023-02-15T20:25:01.128Z,51.87
2023-02-15T20:27:28.297Z,76.00
2023-02-15T20:29:58.013Z,58.73
2023-02-15T20:32:24.931Z,67.40
2023-02-15T20:34:52.735Z,43.07
2023-02-15T20:37:23.956Z,38.87
2023-02-15T20:39:51.205Z,51.77
2023-02-15T20:42:18.847Z,67.40
2023-02-15T20:44:45.775Z,66.70
2023-02-15T20:47:12.479Z,68.50
2023-02-15T20:49:39.260Z,46.03
2023-02-15T20:52:20.642Z,131.93
2023-02-15T20:54:47.566Z,48.47
2023-02-15T20:57:14.491Z,41.57
2023-02-15T20:59:41.685Z,41.80
2023-02-15T21:02:22.176Z,44.00
2023-02-15T21:04:49.091Z,67.17
2023-02-15T21:07:18.198Z,62.07
2023-02-15T21:09:45.990Z,48.07
2023-02-15T21:12:18.245Z,45.27
2023-02-15T21:14:45.525Z,53.30
2023-02-15T21:17:14.090Z,58.70
2023-02-15T21:19:41.524Z,55.63
2023-02-15T21:22:13.488Z,60.47
2023-02-15T21:24:46.145Z,53.50
2023-02-15T21:27:13.324Z,51.20
2023-02-15T21:29:40.025Z,55.67
2023-02-15T21:32:06.817Z,55.93
2023-02-15T21:34:33.582Z,59.57
2023-02-15T21:37:00.279Z,65.27
2023-02-15T21:39:30.116Z,64.60
2023-02-15T21:42:15.403Z,106.73
2023-02-15T21:45:01.114Z,60.80
2023-02-15T21:47:48.639Z,66.80
2023-02-15T21:50:40.113Z,70.77
2023-02-15T21:53:10.839Z,69.77
2023-02-15T21:55:37.629Z,58.20
2023-02-15T21:58:05.783Z,67.90
2023-02-15T22:00:33.783Z,67.03
2023-02-15T22:03:01.879Z,71.40
2023-02-15T22:05:31.335Z,64.97
2023-02-15T22:07:58.165Z,67.17
2023-02-15T22:10:31.040Z,92.90
2023-02-15T22:12:59.588Z,66.70
2023-02-15T22:15:28.951Z,80.67
2023-02-15T22:17:55.646Z,105.57
2023-02-15T22:20:24.129Z,70.17
2023-02-15T22:22:52.608Z,139.57
2023-02-15T22:25:23.508Z,74.83
2023-02-15T22:27:55.777Z,91.50
2023-02-15T22:30:32.650Z,137.93
2023-02-15T22:33:00.949Z,110.13
2023-02-15T22:35:34.282Z,74.10
2023-02-15T22:38:01.389Z,74.93
2023-02-15T22:40:31.773Z,83.93
2023-02-15T22:43:01.027Z,95.27
2023-02-15T22:45:28.284Z,108.90
2023-02-15T22:47:58.219Z,82.00
2023-02-15T22:50:28.199Z,83.83
2023-02-15T22:52:55.353Z,87.07
2023-02-15T22:55:25.033Z,70.73
2023-02-15T22:57:54.838Z,102.30
2023-02-15T23:00:28.637Z,87.00
2023-02-15T23:02:55.981Z,78.03
2023-02-15T23:05:31.294Z,73.87
2023-02-15T23:07:58.138Z,78.00
2023-02-15T23:10:28.532Z,84.13
2023-02-15T23:13:18.871Z,84.93
2023-02-15T23:15:50.554Z,85.07
2023-02-15T23:18:18.052Z,70.17
2023-02-15T23:21:23.687Z,98.27
2023-02-15T23:23:57.459Z,121.63
2023-02-15T23:26:27.709Z,87.77
2023-02-15T23:28:56.089Z,70.00
2023-02-15T23:31:25.877Z,87.23
2023-02-15T23:33:53.788Z,112.20
2023-02-15T23:36:34.552Z,118.27
2023-02-15T23:39:35.207Z,80.17
2023-02-15T23:42:05.814Z,152.93
2023-02-15T23:44:33.039Z,135.53
2023-02-15T23:46:59.763Z,113.23
2023-02-15T23:49:26.517Z,110.47
2023-02-15T23:51:55.607Z,140.47
2023-02-15T23:54:26.303Z,109.20
2023-02-15T23:56:55.491Z,82.43
2023-02-15T23:59:25.379Z,135.33
